Terminal Aerodrome Forecast
Issued by NWS

Home | Current Version | Previous Version | Text Only | Print | Product List | Glossary On
Versions: 1 2 3 4 5 6 7 8 9 10 11 12 13 14
000
FTUS44 KLUB 252340
TAFCDS
TAF
KCDS 252340Z 2600/2624 36011KT P6SM VCTS SCT050CB OVC150
      TEMPO 2600/2604 VRB20G30KT -TSRA BKN040CB
     FM260900 VRB06KT P6SM SCT020 BKN050=

USA.gov is the U.S. government's official web portal to all federal, state and local government web resources and services.